Time;durP1;ratioP1;P1;durP2;ratioP2;P2;SDS_P1;SDS_P2;PMS_P1;PMS_P2;Temp;Humidity;BMP_temperature;BMP_pressure;BME280_temperature;BME280_humidity;BME280_pressure;Samples;Min_cycle;Max_cycle;Signal;HPM_P1;HPM_P2
2023/05/14 00:03:14;;;;;;;7.07;3.65;;;11.10;99.90;;;;;;4929997;29;20052;-81
2023/05/14 00:06:50;;;;;;;;;;;;;;;;;;;;;
2023/05/14 00:10:29;;;;;;;6.63;3.17;;;11.00;99.90;;;;;;4910184;29;20514;-80
2023/05/14 00:14:20;;;;;;;;;;;;;;;;;;;;;
2023/05/14 00:20:13;;;;;;;3.53;2.25;;;10.90;99.90;;;;;;4873090;29;20042;-80
2023/05/14 00:23:44;;;;;;;4.50;2.65;;;10.90;99.90;;;;;;4932571;29;20496;-81
2023/05/14 00:27:36;;;;;;;;;;;;;;;;;;;;;
2023/05/14 00:30:35;;;;;;;6.35;3.28;;;10.80;99.90;;;;;;4846222;29;20085;-81
2023/05/14 00:33:55;;;;;;;5.28;2.63;;;10.80;99.90;;;;;;4843026;29;20060;-82
2023/05/14 00:37:41;;;;;;;;;;;;;;;;;;;;;
2023/05/14 00:40:44;;;;;;;9.60;3.30;;;10.80;99.90;;;;;;4099581;27;30072092;-81
2023/05/14 00:43:27;;;;;;;5.40;2.10;;;10.70;99.90;;;;;;5168603;27;20434;-80
2023/05/14 00:46:24;;;;;;;;;;;;;;;;;;;;;
2023/05/14 00:50:36;;;;;;;4.85;2.75;;;10.70;99.90;;;;;;5172087;27;20103;-80
2023/05/14 00:54:03;;;;;;;4.43;2.17;;;10.70;99.90;;;;;;5007281;28;20046;-81
2023/05/14 00:56:40;;;;;;;6.50;2.35;;;10.60;99.90;;;;;;4991612;28;20050;-80
2023/05/14 01:00:23;;;;;;;6.70;2.03;;;10.60;99.90;;;;;;5007887;28;20054;-80
2023/05/14 01:03:29;;;;;;;3.47;2.28;;;10.60;99.90;;;;;;4932976;29;20139;-82
2023/05/14 01:06:35;;;;;;;4.93;1.83;;;10.60;99.90;;;;;;4946852;28;20572;-80
2023/05/14 01:09:28;;;;;;;4.30;1.60;;;10.60;99.90;;;;;;4933007;29;20098;-80
2023/05/14 01:13:06;;;;;;;3.92;1.83;;;10.50;99.90;;;;;;4932525;29;20063;-80
2023/05/14 01:16:28;;;;;;;4.60;1.88;;;10.60;99.90;;;;;;4909641;29;20084;-80
2023/05/14 01:20:02;;;;;;;2.55;1.58;;;10.50;99.90;;;;;;4910942;29;20066;-82
2023/05/14 01:23:59;;;;;;;4.28;1.75;;;10.60;99.90;;;;;;4912103;29;20139;-80
2023/05/14 01:26:53;;;;;;;3.30;1.80;;;10.50;99.90;;;;;;4911559;29;20052;-81
2023/05/14 01:29:42;;;;;;;5.40;2.13;;;10.60;99.90;;;;;;4927894;29;20056;-80
2023/05/14 01:32:48;;;;;;;18.10;2.88;;;10.50;99.90;;;;;;4895591;29;20052;-82
2023/05/14 01:35:52;;;;;;;;;;;;;;;;;;;;;
2023/05/14 01:39:00;;;;;;;7.60;2.20;;;10.50;99.90;;;;;;4918864;29;20489;-79
2023/05/14 01:41:45;;;;;;;6.93;2.75;;;10.60;99.90;;;;;;4929219;29;20130;-80
2023/05/14 01:44:55;;;;;;;5.25;2.45;;;10.50;99.90;;;;;;4929917;29;20564;-80
2023/05/14 01:48:48;;;;;;;;;;;;;;;;;;;;;
2023/05/14 01:52:20;;;;;;;5.18;2.17;;;10.50;99.90;;;;;;4898244;29;20048;-80
2023/05/14 01:55:36;;;;;;;;;;;;;;;;;;;;;
2023/05/14 01:59:00;;;;;;;3.40;2.85;;;10.50;99.90;;;;;;4798935;29;20038;-80
2023/05/14 02:02:21;;;;;;;;;;;;;;;;;;;;;
2023/05/14 02:05:01;;;;;;;4.47;2.88;;;10.50;99.90;;;;;;4806374;29;20047;-80
2023/05/14 02:09:12;;;;;;;;;;;;;;;;;;;;;
2023/05/14 02:12:39;;;;;;;7.35;3.35;;;10.50;99.90;;;;;;4751243;30;20051;-80
2023/05/14 02:15:33;;;;;;;13.73;4.35;;;10.50;99.90;;;;;;4696819;30;20527;-83
2023/05/14 02:18:43;;;;;;;5.93;3.65;;;10.40;99.90;;;;;;4666285;30;20042;-83
2023/05/14 02:25:42;;;;;;;11.90;5.32;;;10.40;99.90;;;;;;4036545;27;32144323;-80
2023/05/14 02:29:24;;;;;;;10.65;4.60;;;10.40;99.90;;;;;;5151774;27;20482;-81
2023/05/14 02:33:22;;;;;;;;;;;;;;;;;;;;;
2023/05/14 02:36:51;;;;;;;6.70;4.07;;;10.40;99.90;;;;;;5005891;28;20050;-81
2023/05/14 02:40:12;;;;;;;7.88;3.55;;;10.40;99.90;;;;;;4949686;28;20110;-81
2023/05/14 02:42:59;;;;;;;8.32;3.22;;;10.40;99.90;;;;;;4858666;29;20065;-80
2023/05/14 02:45:44;;;;;;;7.18;4.53;;;10.40;99.90;;;;;;4873588;29;20053;-81
2023/05/14 02:48:25;;;;;;;11.18;3.95;;;10.40;99.90;;;;;;4842761;29;20129;-79
2023/05/14 02:52:11;;;;;;;8.90;4.03;;;10.40;99.90;;;;;;4842805;29;20547;-81
2023/05/14 02:55:18;;;;;;;10.73;5.20;;;10.40;99.90;;;;;;4834845;29;20507;-80
2023/05/14 02:59:09;;;;;;;10.15;4.57;;;10.40;99.90;;;;;;4835643;29;20095;-82
2023/05/14 03:02:42;;;;;;;11.18;4.93;;;10.40;99.90;;;;;;4782275;29;20051;-79
2023/05/14 03:05:46;;;;;;;14.25;5.45;;;10.40;99.90;;;;;;4764275;30;20059;-80
2023/05/14 03:08:20;;;;;;;9.50;4.45;;;10.40;99.90;;;;;;4714184;30;20131;-80
2023/05/14 03:11:01;;;;;;;;;;;;;;;;;;;;;
2023/05/14 03:14:37;;;;;;;7.38;3.60;;;10.30;99.90;;;;;;4750439;29;20691;-80
2023/05/14 03:18:10;;;;;;;7.75;4.05;;;10.30;99.90;;;;;;4859037;29;20368;-80
2023/05/14 03:21:07;;;;;;;6.93;3.78;;;10.30;99.90;;;;;;4835853;29;20544;-82
2023/05/14 03:24:42;;;;;;;5.72;3.22;;;10.30;99.90;;;;;;4834738;29;20050;-80
2023/05/14 03:28:08;;;;;;;9.85;3.38;;;10.30;99.90;;;;;;4764173;30;20054;-82
2023/05/14 03:31:46;;;;;;;5.32;2.50;;;10.20;99.90;;;;;;4710800;30;20091;-80
2023/05/14 03:34:37;;;;;;;;;;;;;;;;;;;;;
2023/05/14 03:37:58;;;;;;;7.30;3.50;;;10.20;99.90;;;;;;4645424;30;20538;-80
2023/05/14 03:41:04;;;;;;;6.75;2.90;;;10.20;99.90;;;;;;4239591;27;26304438;-82
2023/05/14 03:43:44;;;;;;;6.97;3.78;;;10.30;99.90;;;;;;5130399;27;20066;-82
2023/05/14 03:46:33;;;;;;;13.00;5.07;;;10.30;99.90;;;;;;5112398;28;20054;-82
2023/05/14 03:49:48;;;;;;;15.38;5.32;;;10.30;99.90;;;;;;5111436;27;20089;-82
2023/05/14 03:52:39;;;;;;;8.55;3.90;;;10.30;99.90;;;;;;5111319;28;20060;-82
2023/05/14 03:55:41;;;;;;;6.35;3.40;;;10.30;99.90;;;;;;5127827;28;20054;-80
2023/05/14 03:58:45;;;;;;;;;;;;;;;;;;;;;
2023/05/14 04:01:37;;;;;;;7.60;3.63;;;10.30;99.90;;;;;;5129530;28;20062;-83
2023/05/14 04:04:45;;;;;;;;;;;;;;;;;;;;;
2023/05/14 04:07:46;;;;;;;10.55;3.58;;;10.40;99.90;;;;;;5129816;27;20050;-82
2023/05/14 04:10:31;;;;;;;6.45;3.33;;;10.40;99.90;;;;;;5087083;28;20449;-82
2023/05/14 04:13:22;;;;;;;12.60;4.38;;;10.40;99.90;;;;;;5070612;28;20051;-80
2023/05/14 04:16:30;;;;;;;8.32;3.95;;;10.50;99.90;;;;;;5087269;28;20050;-81
2023/05/14 04:19:32;;;;;;;6.38;2.78;;;10.50;99.90;;;;;;5067057;28;20049;-82
2023/05/14 04:22:40;;;;;;;8.70;2.92;;;10.50;99.90;;;;;;5065603;28;20489;-81
2023/05/14 04:25:56;;;;;;;;;;;;;;;;;;;;;
2023/05/14 04:29:32;;;;;;;8.98;4.05;;;10.50;99.90;;;;;;5071074;28;20032;-80
2023/05/14 04:32:41;;;;;;;14.93;5.60;;;10.60;99.90;;;;;;5006108;28;20050;-82
2023/05/14 04:35:23;;;;;;;20.85;6.03;;;10.60;99.90;;;;;;5006959;28;20114;-82
2023/05/14 04:38:38;;;;;;;8.80;4.25;;;10.70;99.90;;;;;;4990622;28;20133;-80
2023/05/14 04:42:23;;;;;;;;;;;;;;;;;;;;;
2023/05/14 04:45:39;;;;;;;9.60;4.20;;;10.70;99.90;;;;;;5026718;28;20425;-80
2023/05/14 04:48:49;;;;;;;;;;;;;;;;;;;;;
2023/05/14 04:52:01;;;;;;;8.77;3.28;;;10.80;99.90;;;;;;5015962;28;20078;-81
2023/05/14 04:54:59;;;;;;;11.70;3.63;;;10.90;99.90;;;;;;5033064;28;20140;-82
2023/05/14 04:58:02;;;;;;;;;;;;;;;;;;;;;
2023/05/14 05:00:45;;;;;;;9.30;4.20;;;10.90;99.90;;;;;;5013812;28;20050;-79
2023/05/14 05:04:00;;;;;;;;;;;;;;;;;;;;;
2023/05/14 05:07:05;;;;;;;17.08;5.10;;;11.00;99.90;;;;;;5009713;28;20046;-79
2023/05/14 05:10:06;;;;;;;;;;;;;;;;;;;;;
2023/05/14 05:13:10;;;;;;;14.38;5.15;;;11.20;99.90;;;;;;5079465;28;20539;-82
2023/05/14 05:16:06;;;;;;;10.68;4.43;;;11.20;99.90;;;;;;5074225;28;20075;-80
2023/05/14 05:19:01;;;;;;;11.63;4.00;;;11.30;99.90;;;;;;5074745;28;20049;-82
2023/05/14 05:21:48;;;;;;;9.77;4.30;;;11.30;99.90;;;;;;5073782;28;20063;-81
2023/05/14 05:25:16;;;;;;;;;;;;;;;;;;;;;
2023/05/14 05:28:14;;;;;;;17.50;4.85;;;11.50;99.90;;;;;;4972849;28;20059;-81
2023/05/14 05:31:07;;;;;;;7.47;4.05;;;11.60;99.90;;;;;;4976614;28;20054;-82
2023/05/14 05:34:09;;;;;;;18.25;4.90;;;11.70;99.90;;;;;;4984749;28;20082;-81
2023/05/14 05:37:02;;;;;;;10.43;3.97;;;11.80;99.90;;;;;;4992431;28;20110;-82
2023/05/14 05:40:00;;;;;;;13.23;4.00;;;11.80;99.90;;;;;;4991347;28;20061;-80
2023/05/14 05:43:01;;;;;;;9.40;4.50;;;11.90;99.90;;;;;;4994920;28;20054;-82
2023/05/14 05:46:09;;;;;;;;;;;;;;;;;;;;;
2023/05/14 05:49:40;;;;;;;;;;;;;;;;;;;;;
2023/05/14 05:52:39;;;;;;;13.93;4.47;;;12.20;99.90;;;;;;5010982;28;20123;-83
2023/05/14 05:55:15;;;;;;;10.02;3.75;;;12.40;99.90;;;;;;5010413;28;20069;-83
2023/05/14 05:58:01;;;;;;;9.82;3.10;;;12.60;99.90;;;;;;5011206;28;20446;-82
2023/05/14 06:01:07;;;;;;;11.80;2.97;;;12.60;99.90;;;;;;4992290;28;20050;-82
2023/05/14 06:04:15;;;;;;;7.95;3.28;;;12.70;99.90;;;;;;5016299;28;20074;-82
2023/05/14 06:07:34;;;;;;;;;;;;;;;;;;;;;
2023/05/14 06:10:44;;;;;;;6.70;2.13;;;13.00;99.90;;;;;;5059260;28;20448;-83
2023/05/14 06:13:47;;;;;;;7.30;2.15;;;13.10;99.90;;;;;;5041699;28;20094;-81
2023/05/14 06:16:17;;;;;;;6.25;2.40;;;13.30;99.90;;;;;;5088713;28;20066;-81
2023/05/14 06:18:51;;;;;;;5.32;2.50;;;13.40;99.90;;;;;;5078567;28;20047;-82
2023/05/14 06:21:58;;;;;;;5.10;1.90;;;13.50;99.90;;;;;;5083434;28;20083;-81
2023/05/14 06:24:47;;;;;;;5.43;2.20;;;13.60;99.90;;;;;;5094881;28;20496;-81
2023/05/14 06:27:38;;;;;;;8.85;3.03;;;13.80;99.90;;;;;;5074425;28;20458;-81
2023/05/14 06:30:50;;;;;;;11.23;3.42;;;13.80;99.90;;;;;;5100258;28;20104;-83
2023/05/14 06:34:05;;;;;;;11.95;3.65;;;13.80;99.90;;;;;;5093399;28;20427;-81
2023/05/14 06:37:12;;;;;;;;;;;;;;;;;;;;;
2023/05/14 06:39:48;;;;;;;8.20;2.38;;;14.00;99.90;;;;;;5105399;27;20130;-90
2023/05/14 06:42:21;;;;;;;5.68;2.70;;;14.20;99.90;;;;;;5116086;27;20130;-82
2023/05/14 06:44:53;;;;;;;10.25;2.67;;;14.20;99.90;;;;;;5116006;27;20049;-83
2023/05/14 06:47:26;;;;;;;6.65;3.15;;;14.30;99.90;;;;;;5126570;27;20517;-83
2023/05/14 06:50:00;;;;;;;6.68;2.83;;;14.40;99.90;;;;;;5113584;28;20391;-83
2023/05/14 06:52:31;;;;;;;6.93;2.13;;;14.50;99.90;;;;;;5113769;28;20039;-82
2023/05/14 06:54:59;;;;;;;7.68;3.28;;;14.50;99.90;;;;;;5098087;27;20093;-82
2023/05/14 06:57:28;;;;;;;6.13;2.85;;;14.60;99.90;;;;;;5133802;27;20521;-82
2023/05/14 07:00:04;;;;;;;5.50;2.60;;;14.70;99.90;;;;;;5115015;27;20039;-82
2023/05/14 07:02:36;;;;;;;6.70;2.40;;;14.70;99.90;;;;;;5110269;28;20074;-82
2023/05/14 07:05:03;;;;;;;5.35;2.35;;;14.80;99.90;;;;;;5112189;28;20051;-80
2023/05/14 07:07:37;;;;;;;4.57;2.60;;;14.90;99.90;;;;;;5113237;28;20414;-81
2023/05/14 07:10:30;;;;;;;10.00;3.10;;;14.90;99.90;;;;;;5110465;27;20039;-81
2023/05/14 07:13:44;;;;;;;8.13;3.15;;;15.00;99.90;;;;;;5133566;27;20061;-81
2023/05/14 07:16:45;;;;;;;7.07;2.75;;;15.10;99.90;;;;;;5130909;27;20052;-82
2023/05/14 07:19:27;;;;;;;6.65;3.80;;;15.20;99.90;;;;;;5113705;27;20054;-81
2023/05/14 07:22:30;;;;;;;6.22;2.20;;;15.20;99.90;;;;;;5113353;27;20431;-83
2023/05/14 07:25:31;;;;;;;7.10;3.13;;;15.20;99.90;;;;;;5114775;27;20184;-81
2023/05/14 07:28:34;;;;;;;5.25;2.28;;;15.30;99.90;;;;;;5129021;27;20070;-83
2023/05/14 07:31:33;;;;;;;9.63;3.75;;;15.40;99.90;;;;;;5107482;28;20079;-84
2023/05/14 07:34:42;;;;;;;;;;;;;;;;;;;;;
2023/05/14 07:37:31;;;;;;;6.75;2.90;;;15.40;99.90;;;;;;5107207;28;20048;-82
2023/05/14 07:40:28;;;;;;;11.48;3.70;;;15.40;99.90;;;;;;5111481;28;20392;-83
2023/05/14 07:43:56;;;;;;;7.57;2.40;;;15.50;99.90;;;;;;5110191;28;20044;-82
2023/05/14 07:47:08;;;;;;;;;;;;;;;;;;;;;
2023/05/14 07:50:23;;;;;;;;;;;;;;;;;;;;;
2023/05/14 07:53:32;;;;;;;7.90;2.42;;;15.30;99.90;;;;;;5130224;28;20043;-82
2023/05/14 07:56:59;;;;;;;3.17;2.00;;;15.40;99.90;;;;;;5127127;28;20384;-83
2023/05/14 08:00:05;;;;;;;6.07;2.35;;;15.40;99.90;;;;;;5010523;28;20518;-83
2023/05/14 08:03:00;;;;;;;7.22;2.00;;;15.50;99.90;;;;;;4992456;28;20133;-84
2023/05/14 08:05:57;;;;;;;8.73;2.70;;;15.70;99.90;;;;;;4994075;28;20099;-84
2023/05/14 08:08:45;;;;;;;5.97;2.28;;;15.80;99.90;;;;;;5009500;28;20407;-81
2023/05/14 08:11:43;;;;;;;7.38;2.50;;;15.60;99.90;;;;;;5007774;28;20397;-80
2023/05/14 08:14:34;;;;;;;7.28;2.53;;;15.70;99.90;;;;;;5009981;28;20133;-80
2023/05/14 08:17:43;;;;;;;8.75;2.25;;;15.70;99.90;;;;;;5010414;28;20054;-80
2023/05/14 08:20:37;;;;;;;6.47;1.92;;;15.90;99.90;;;;;;4994061;28;20046;-80
2023/05/14 08:23:43;;;;;;;6.28;1.98;;;16.10;99.90;;;;;;4993788;28;20137;-83
2023/05/14 08:26:38;;;;;;;3.63;2.20;;;16.20;99.90;;;;;;5015075;28;20052;-83
2023/05/14 08:30:16;;;;;;;6.95;2.63;;;16.20;99.90;;;;;;5016877;28;20149;-84
2023/05/14 08:33:17;;;;;;;5.88;2.13;;;16.30;99.90;;;;;;4939479;29;20055;-91
2023/05/14 08:36:29;;;;;;;4.25;2.20;;;16.30;99.90;;;;;;4990994;28;20127;-87
2023/05/14 08:39:10;;;;;;;7.45;3.10;;;16.40;99.90;;;;;;5044290;28;20049;-83
2023/05/14 08:42:26;;;;;;;6.55;3.08;;;16.40;99.90;;;;;;5036568;28;20087;-86
2023/05/14 08:45:45;;;;;;;8.63;2.58;;;16.60;99.90;;;;;;4996974;28;20466;-84
2023/05/14 08:49:00;;;;;;;4.82;1.92;;;16.60;99.90;;;;;;4997393;28;20120;-85
2023/05/14 08:52:08;;;;;;;5.75;2.10;;;16.80;99.90;;;;;;5011762;28;20052;-83
2023/05/14 08:55:24;;;;;;;6.45;2.45;;;16.90;99.90;;;;;;4996852;28;20058;-84
2023/05/14 08:58:26;;;;;;;4.72;2.58;;;17.20;99.90;;;;;;5006927;28;20084;-90
2023/05/14 09:01:24;;;;;;;6.85;2.08;;;17.40;99.90;;;;;;5013210;28;20052;-85
2023/05/14 09:04:38;;;;;;;5.47;2.78;;;17.60;99.90;;;;;;4997217;28;20049;-84
2023/05/14 09:07:30;;;;;;;3.95;2.20;;;17.70;99.90;;;;;;4984122;28;20495;-89
2023/05/14 09:10:46;;;;;;;;;;;;;;;;;;;;;
2023/05/14 09:14:00;;;;;;;;;;;;;;;;;;;;;
2023/05/14 09:17:18;;;;;;;;;;;;;;;;;;;;;
2023/05/14 09:20:29;;;;;;;7.88;2.30;;;18.00;99.90;;;;;;5059954;28;20040;-88
2023/05/14 09:23:06;;;;;;;4.95;2.05;;;18.00;99.90;;;;;;5055038;28;20531;-90
2023/05/14 09:26:32;;;;;;;5.68;2.25;;;18.00;99.90;;;;;;5066841;28;20091;-84
2023/05/14 09:29:36;;;;;;;8.13;2.67;;;18.30;99.90;;;;;;5054571;28;20037;-83
2023/05/14 09:32:42;;;;;;;8.52;2.50;;;18.40;99.90;;;;;;5035761;28;20124;-82
2023/05/14 09:35:42;;;;;;;8.88;2.55;;;18.60;99.90;;;;;;5050340;28;20057;-82
2023/05/14 09:38:39;;;;;;;5.85;3.45;;;18.70;99.90;;;;;;5094638;28;20181;-83
2023/05/14 09:41:53;;;;;;;3.67;1.95;;;18.90;99.90;;;;;;5111340;28;20051;-83
2023/05/14 09:44:58;;;;;;;5.38;2.55;;;19.00;99.90;;;;;;5113891;28;20047;-84
2023/05/14 09:47:55;;;;;;;4.57;2.45;;;19.30;99.90;;;;;;5104920;28;20127;-84
2023/05/14 09:50:31;;;;;;;4.00;1.85;;;19.30;99.90;;;;;;5094704;28;20051;-82
2023/05/14 09:53:06;;;;;;;5.72;2.78;;;19.50;99.90;;;;;;5052560;28;20135;-84
2023/05/14 09:55:48;;;;;;;7.03;2.65;;;19.60;99.90;;;;;;5053305;28;20080;-84
2023/05/14 09:58:56;;;;;;;4.32;1.83;;;19.90;99.90;;;;;;5052315;28;20045;-83
2023/05/14 10:02:00;;;;;;;7.18;2.38;;;20.20;99.90;;;;;;5051565;28;20054;-81
2023/05/14 10:05:00;;;;;;;8.18;2.20;;;20.50;99.90;;;;;;5051787;28;20049;-84
2023/05/14 10:08:05;;;;;;;5.00;2.33;;;20.80;99.90;;;;;;5049196;28;20114;-83
2023/05/14 10:10:48;;;;;;;3.97;1.88;;;20.60;99.90;;;;;;5052011;28;20406;-80
2023/05/14 10:13:45;;;;;;;4.93;2.20;;;20.60;99.90;;;;;;5071640;28;20060;-82
2023/05/14 10:17:16;;;;;;;7.63;2.67;;;20.50;99.90;;;;;;5023626;28;20153;-83
2023/05/14 10:20:19;;;;;;;4.85;2.80;;;20.50;99.90;;;;;;5054778;28;20053;-85
2023/05/14 10:22:58;;;;;;;5.00;2.80;;;20.80;99.90;;;;;;5068158;28;20053;-83
2023/05/14 10:25:55;;;;;;;3.78;2.58;;;20.70;99.90;;;;;;5105664;28;20119;-82
2023/05/14 10:28:48;;;;;;;4.47;2.33;;;20.60;99.90;;;;;;5113759;28;20051;-82
2023/05/14 10:31:22;;;;;;;4.43;2.40;;;20.40;99.90;;;;;;5111606;28;20043;-80
2023/05/14 10:34:15;;;;;;;;;;;;;;;;;;;;;
2023/05/14 10:37:03;;;;;;;4.40;2.75;;;20.50;99.90;;;;;;5101170;28;20052;-83
2023/05/14 10:39:56;;;;;;;4.83;2.80;;;20.70;99.90;;;;;;5109619;28;20488;-82
2023/05/14 10:43:00;;;;;;;4.97;3.25;;;20.80;99.90;;;;;;5105782;28;20131;-83
2023/05/14 10:46:28;;;;;;;;;;;;;;;;;;;;;
2023/05/14 10:49:12;;;;;;;7.32;2.38;;;21.00;99.90;;;;;;5095991;28;20051;-87
2023/05/14 10:52:14;;;;;;;4.95;2.97;;;21.50;99.90;;;;;;5108746;27;20079;-82
2023/05/14 10:55:08;;;;;;;5.05;3.20;;;21.80;99.90;;;;;;5135546;27;20035;-84
2023/05/14 10:57:42;;;;;;;4.28;2.53;;;21.70;99.90;;;;;;5112439;28;20408;-81
2023/05/14 11:00:13;;;;;;;6.43;2.83;;;21.80;99.90;;;;;;5129235;27;20058;-86
2023/05/14 11:02:42;;;;;;;6.22;2.80;;;21.70;99.90;;;;;;5090668;28;20127;-87
2023/05/14 11:05:37;;;;;;;3.65;2.67;;;21.90;99.90;;;;;;5114932;28;20066;-87
2023/05/14 11:08:30;;;;;;;7.95;2.65;;;22.10;99.90;;;;;;5078627;28;20043;-87
2023/05/14 11:15:05;;;;;;;6.70;2.47;;;22.70;99.90;;;;;;5094951;28;20035;-87
2023/05/14 11:17:35;;;;;;;6.07;1.65;;;22.80;99.90;;;;;;5075665;28;20044;-88
2023/05/14 11:20:34;;;;;;;3.40;1.70;;;23.10;99.90;;;;;;5094666;28;20044;-89
2023/05/14 11:23:47;;;;;;;4.03;1.75;;;23.30;97.60;;;;;;5041224;28;20048;-87
2023/05/14 11:26:39;;;;;;;2.60;1.50;;;23.30;95.80;;;;;;5047060;28;20049;-84
2023/05/14 11:29:35;;;;;;;2.60;1.50;;;23.40;93.20;;;;;;5043765;28;20162;-85
2023/05/14 11:32:41;;;;;;;;;;;;;;;;;;;;;
2023/05/14 11:35:19;;;;;;;3.38;1.30;;;23.50;93.10;;;;;;5063244;28;20048;-85
2023/05/14 11:38:17;;;;;;;2.45;1.40;;;23.30;92.90;;;;;;5052464;28;20128;-86
2023/05/14 11:40:56;;;;;;;1.95;1.23;;;23.30;93.80;;;;;;5052990;28;20072;-85
2023/05/14 11:43:51;;;;;;;2.30;1.50;;;23.00;91.30;;;;;;5048805;28;20187;-82
2023/05/14 11:47:00;;;;;;;3.05;1.70;;;23.20;92.20;;;;;;5057245;28;20151;-83
2023/05/14 11:49:40;;;;;;;3.22;1.80;;;23.20;93.60;;;;;;5034558;28;20064;-85
2023/05/14 11:52:47;;;;;;;3.08;1.30;;;23.60;93.10;;;;;;5053428;28;20885;-86
2023/05/14 11:55:40;;;;;;;2.05;1.20;;;23.40;91.40;;;;;;5055513;28;20664;-86
2023/05/14 11:58:12;;;;;;;2.05;1.40;;;23.60;91.50;;;;;;5053972;28;20116;-83
2023/05/14 12:01:26;;;;;;;3.10;1.83;;;23.40;90.80;;;;;;5038230;28;20037;-84
2023/05/14 12:04:28;;;;;;;2.45;1.35;;;23.40;91.20;;;;;;5059563;28;20058;-86
2023/05/14 12:07:32;;;;;;;3.88;1.88;;;23.30;89.70;;;;;;4998300;28;20050;-82
2023/05/14 12:10:27;;;;;;;2.22;1.40;;;23.00;90.30;;;;;;4989685;28;20066;-84
2023/05/14 12:17:16;;;;;;;;;;;;;;;;;;;;;
2023/05/14 12:20:05;;;;;;;2.65;1.25;;;23.20;89.80;;;;;;4980723;28;20053;-86
2023/05/14 12:22:47;;;;;;;2.17;1.42;;;23.50;90.60;;;;;;4990268;28;20085;-83
2023/05/14 12:25:45;;;;;;;2.35;1.20;;;23.40;86.10;;;;;;4964249;28;20083;-85
2023/05/14 12:28:48;;;;;;;;;;;;;;;;;;;;;
2023/05/14 12:31:43;;;;;;;2.83;1.52;;;23.60;90.00;;;;;;4994359;28;20069;-89
2023/05/14 12:34:40;;;;;;;;;;;;;;;;;;;;;
2023/05/14 12:37:46;;;;;;;2.95;1.83;;;23.20;96.10;;;;;;4972347;28;20491;-84
2023/05/14 12:41:01;;;;;;;6.45;3.00;;;23.40;96.50;;;;;;5019614;28;20344;-83
2023/05/14 12:43:48;;;;;;;6.68;2.55;;;23.10;99.90;;;;;;5037070;28;20460;-85
2023/05/14 12:46:35;;;;;;;6.18;2.88;;;22.80;99.90;;;;;;5077724;28;20040;-83
2023/05/14 12:49:31;;;;;;;5.40;3.40;;;22.90;99.90;;;;;;5093978;28;20423;-85
2023/05/14 12:52:31;;;;;;;4.35;2.78;;;23.00;99.90;;;;;;5090621;28;20048;-84
2023/05/14 12:55:28;;;;;;;;;;;;;;;;;;;;;
2023/05/14 12:58:32;;;;;;;6.07;3.75;;;22.60;99.90;;;;;;5087095;28;20070;-83
2023/05/14 13:01:23;;;;;;;6.43;3.67;;;22.60;99.90;;;;;;5074011;28;20079;-87
2023/05/14 13:04:12;;;;;;;;;;;22.60;99.90;;;;;;5077287;28;20044;-82
2023/05/14 13:07:07;;;;;;;7.70;4.75;;;22.80;99.90;;;;;;5062097;28;19962;-83
2023/05/14 13:10:12;;;;;;;8.43;4.87;;;22.50;99.90;;;;;;5058493;28;20056;-83
2023/05/14 13:13:27;;;;;;;6.82;4.18;;;22.50;99.90;;;;;;5093391;28;20044;-84
2023/05/14 13:16:23;;;;;;;8.25;4.15;;;22.30;99.90;;;;;;5094735;28;20063;-83
2023/05/14 13:19:07;;;;;;;9.15;4.78;;;21.90;99.90;;;;;;5074831;28;20048;-84
2023/05/14 13:22:03;;;;;;;9.27;5.63;;;22.10;99.90;;;;;;5056638;28;20131;-84
2023/05/14 13:25:10;;;;;;;;;;;;;;;;;;;;;
2023/05/14 13:28:12;;;;;;;;;;;;;;;;;;;;;
2023/05/14 13:31:34;;;;;;;4.53;3.30;;;21.90;99.90;;;;;;5092703;28;20036;-84
2023/05/14 13:34:54;;;;;;;6.65;4.45;;;22.10;99.90;;;;;;4993174;28;20506;-82
2023/05/14 13:38:07;;;;;;;6.68;4.07;;;22.30;99.90;;;;;;4970682;28;20384;-84
2023/05/14 13:40:57;;;;;;;5.88;3.65;;;22.20;99.90;;;;;;4973167;28;20050;-82
2023/05/14 13:44:07;;;;;;;5.70;4.00;;;22.20;99.90;;;;;;4962792;28;20467;-82
2023/05/14 13:47:01;;;;;;;7.10;4.80;;;22.10;99.90;;;;;;4941541;28;20043;-83
2023/05/14 13:50:21;;;;;;;6.28;4.07;;;22.10;99.90;;;;;;4960216;28;20047;-84
2023/05/14 13:53:12;;;;;;;9.82;4.70;;;22.00;99.90;;;;;;4977389;28;20109;-86
2023/05/14 13:56:37;;;;;;;12.30;3.90;;;22.10;99.90;;;;;;4987700;28;20538;-87
2023/05/14 13:59:32;;;;;;;8.73;4.38;;;22.00;99.90;;;;;;4951824;29;20448;-84
2023/05/14 14:02:33;;;;;;;9.75;5.05;;;22.20;99.90;;;;;;4924029;29;20062;-85
2023/05/14 14:05:39;;;;;;;10.70;5.28;;;22.10;99.90;;;;;;4934917;29;20044;-83
2023/05/14 14:08:44;;;;;;;6.10;4.18;;;22.30;99.90;;;;;;4935141;29;20051;-84
2023/05/14 14:11:42;;;;;;;10.43;5.57;;;22.20;99.90;;;;;;4993009;28;20223;-85
2023/05/14 14:14:33;;;;;;;8.02;5.53;;;22.20;99.90;;;;;;5015127;28;20049;-85
2023/05/14 14:17:35;;;;;;;9.90;4.90;;;22.20;99.90;;;;;;4996276;28;20493;-83
2023/05/14 14:20:35;;;;;;;7.03;4.40;;;22.00;99.90;;;;;;5011473;28;20049;-83
2023/05/14 14:23:33;;;;;;;8.02;4.63;;;22.10;99.90;;;;;;4978164;28;20054;-83
2023/05/14 14:26:26;;;;;;;8.25;5.05;;;21.90;99.90;;;;;;5015052;28;20038;-82
2023/05/14 14:29:20;;;;;;;6.63;4.55;;;21.80;99.90;;;;;;5010881;28;20078;-83
2023/05/14 14:32:24;;;;;;;;;;;;;;;;;;;;;
2023/05/14 14:35:47;;;;;;;9.48;5.22;;;21.70;99.90;;;;;;5062452;28;20058;-83
2023/05/14 14:38:42;;;;;;;6.78;4.85;;;21.70;99.90;;;;;;5030584;28;20053;-82
2023/05/14 14:41:35;;;;;;;6.28;4.30;;;21.70;99.90;;;;;;5005758;28;20050;-82
2023/05/14 14:44:28;;;;;;;9.60;5.80;;;21.60;99.90;;;;;;5030439;28;20152;-85
2023/05/14 14:47:31;;;;;;;7.82;5.55;;;21.50;99.90;;;;;;5030952;28;20441;-82
2023/05/14 14:50:48;;;;;;;11.00;5.35;;;21.40;99.90;;;;;;5032725;28;20044;-82
2023/05/14 14:54:03;;;;;;;9.20;6.03;;;21.40;99.90;;;;;;5048741;28;20044;-82
2023/05/14 14:56:47;;;;;;;7.35;4.80;;;21.60;99.90;;;;;;5048495;28;20414;-82
2023/05/14 14:59:53;;;;;;;8.63;5.82;;;21.60;99.90;;;;;;5050777;28;20053;-83
2023/05/14 15:02:23;;;;;;;10.55;5.70;;;21.40;99.90;;;;;;5033421;28;20677;-84
2023/05/14 15:05:28;;;;;;;;;;;;;;;;;;;;;
2023/05/14 15:08:41;;;;;;;10.20;6.28;;;21.50;99.90;;;;;;5030607;28;20049;-82
2023/05/14 15:11:46;;;;;;;11.05;6.15;;;21.50;99.90;;;;;;4991032;28;20097;-82
2023/05/14 15:14:23;;;;;;;10.38;7.15;;;21.20;99.90;;;;;;4971079;28;20050;-83
2023/05/14 15:17:26;;;;;;;;;;;;;;;;;;;;;
2023/05/14 15:20:06;;;;;;;9.70;6.55;;;21.00;99.90;;;;;;4978103;28;20434;-83
2023/05/14 15:23:10;;;;;;;9.15;7.78;;;21.10;99.90;;;;;;5009870;28;20121;-83
2023/05/14 15:25:51;;;;;;;11.52;6.45;;;20.80;99.90;;;;;;4992299;28;20039;-83
2023/05/14 15:28:48;;;;;;;8.82;6.70;;;20.90;99.90;;;;;;4990142;28;20050;-83
2023/05/14 15:31:49;;;;;;;16.05;7.93;;;20.70;99.90;;;;;;5002686;28;20053;-84
2023/05/14 15:34:51;;;;;;;8.10;6.88;;;20.50;99.90;;;;;;5009561;28;20096;-82
2023/05/14 15:38:01;;;;;;;9.13;6.57;;;20.30;99.90;;;;;;5008711;28;20120;-82
2023/05/14 15:41:06;;;;;;;10.00;6.43;;;20.10;99.90;;;;;;5010456;28;20069;-83
2023/05/14 15:44:34;;;;;;;9.38;7.88;;;20.00;99.90;;;;;;5013851;28;20038;-83
2023/05/14 15:47:22;;;;;;;11.88;8.13;;;19.70;99.90;;;;;;4975362;28;20037;-82
2023/05/14 15:50:33;;;;;;;12.68;8.20;;;19.50;99.90;;;;;;5007183;28;20151;-86
2023/05/14 15:53:28;;;;;;;;;;;;;;;;;;;;;
2023/05/14 15:56:32;;;;;;;;;;;;;;;;;;;;;
2023/05/14 15:59:15;;;;;;;9.82;6.95;;;19.50;99.90;;;;;;5005582;28;20050;-82
2023/05/14 16:02:11;;;;;;;10.82;6.88;;;19.10;99.90;;;;;;5001172;28;20072;-86
2023/05/14 16:04:55;;;;;;;9.00;6.00;;;19.00;99.90;;;;;;5029354;28;20052;-82
2023/05/14 16:07:56;;;;;;;11.98;8.35;;;19.10;99.90;;;;;;4993842;28;20080;-86
2023/05/14 16:10:53;;;;;;;7.88;6.55;;;19.20;99.90;;;;;;5007434;28;20084;-84
2023/05/14 16:13:57;;;;;;;11.80;6.95;;;18.90;99.90;;;;;;5022886;28;20565;-86
2023/05/14 16:16:34;;;;;;;12.38;7.28;;;19.00;99.90;;;;;;5029012;28;20080;-84
2023/05/14 16:19:51;;;;;;;11.25;6.88;;;18.90;99.90;;;;;;5011056;28;20045;-84
2023/05/14 16:22:45;;;;;;;14.95;9.23;;;18.90;99.90;;;;;;5008170;28;20053;-84
2023/05/14 16:25:47;;;;;;;15.05;9.52;;;18.80;99.90;;;;;;5049407;28;20390;-82
2023/05/14 16:28:50;;;;;;;9.40;7.00;;;18.60;99.90;;;;;;5049467;28;20060;-83
2023/05/14 16:32:00;;;;;;;11.07;5.80;;;18.50;99.90;;;;;;5049759;28;20049;-82
2023/05/14 16:35:05;;;;;;;;;;;;;;;;;;;;;
2023/05/14 16:37:56;;;;;;;13.20;9.43;;;18.50;99.90;;;;;;5069936;28;20108;-83
2023/05/14 16:40:49;;;;;;;14.80;9.85;;;18.40;99.90;;;;;;5069072;28;20045;-83
2023/05/14 16:43:44;;;;;;;9.88;7.57;;;18.40;99.90;;;;;;5047784;28;20076;-85
2023/05/14 16:46:51;;;;;;;15.23;8.70;;;18.00;99.90;;;;;;5053597;28;20163;-83
2023/05/14 16:49:45;;;;;;;;;;;18.00;99.90;;;;;;5072370;28;20054;-83
2023/05/14 16:52:42;;;;;;;10.63;6.85;;;17.70;99.90;;;;;;5052876;28;19921;-82
2023/05/14 16:55:50;;;;;;;12.10;7.85;;;17.70;99.90;;;;;;5036153;28;20488;-83
2023/05/14 16:59:10;;;;;;;9.88;7.63;;;17.40;99.90;;;;;;4979295;28;20054;-85
2023/05/14 17:01:58;;;;;;;11.48;9.10;;;17.30;99.90;;;;;;4927529;29;20055;-83
2023/05/14 17:04:59;;;;;;;12.07;8.15;;;17.00;99.90;;;;;;4916195;29;20091;-88
2023/05/14 17:07:53;;;;;;;13.88;9.40;;;16.90;99.90;;;;;;4932717;29;20048;-83